createdAt,value
2018-05-03T00:00:50.278Z,6.63
2018-05-03T00:03:16.831Z,7.63
2018-05-03T00:05:43.437Z,6.73
2018-05-03T00:08:10.751Z,6.00
2018-05-03T00:10:37.331Z,6.60
2018-05-03T00:13:04.649Z,6.60
2018-05-03T00:15:31.256Z,6.57
2018-05-03T00:17:57.796Z,6.47
2018-05-03T00:20:24.358Z,6.43
2018-05-03T00:22:50.918Z,6.60
2018-05-03T00:25:18.233Z,6.20
2018-05-03T00:27:44.778Z,6.57
2018-05-03T00:30:11.335Z,6.50
2018-05-03T00:32:38.605Z,6.93
2018-05-03T00:35:05.888Z,6.43
2018-05-03T00:37:32.463Z,7.13
2018-05-03T00:39:59.084Z,7.60
2018-05-03T00:42:25.668Z,7.07
2018-05-03T00:44:52.958Z,7.57
2018-05-03T00:47:19.532Z,7.03
2018-05-03T00:49:46.102Z,6.67
2018-05-03T00:52:12.662Z,7.63
2018-05-03T00:54:47.347Z,7.50
2018-05-03T00:57:13.965Z,7.67
2018-05-03T00:59:40.520Z,8.07
2018-05-03T01:02:07.869Z,7.27
2018-05-03T01:04:34.527Z,7.80
2018-05-03T01:07:01.815Z,8.00
2018-05-03T01:09:28.359Z,7.73
2018-05-03T01:11:54.981Z,7.97
2018-05-03T01:14:21.581Z,8.10
2018-05-03T01:16:48.890Z,7.43
2018-05-03T01:19:15.514Z,7.00
2018-05-03T01:21:42.091Z,7.10
2018-05-03T01:24:08.729Z,6.93
2018-05-03T01:26:35.328Z,6.93
2018-05-03T01:29:01.907Z,6.37
2018-05-03T01:31:28.525Z,6.43
2018-05-03T01:33:55.131Z,6.93
2018-05-03T01:36:25.795Z,5.70
2018-05-03T01:38:52.358Z,7.23
2018-05-03T01:41:19.002Z,6.00
2018-05-03T01:43:45.584Z,5.50
2018-05-03T01:46:12.175Z,6.13
2018-05-03T01:48:38.750Z,5.57
2018-05-03T01:51:05.339Z,5.93
2018-05-03T01:53:31.945Z,6.33
2018-05-03T01:55:58.498Z,6.40
2018-05-03T01:58:25.798Z,6.17
2018-05-03T02:00:52.454Z,7.20
2018-05-03T02:03:19.001Z,6.07
2018-05-03T02:05:45.598Z,6.87
2018-05-03T02:08:12.906Z,6.13
2018-05-03T02:10:39.546Z,7.40
2018-05-03T02:13:06.180Z,7.63
2018-05-03T02:15:32.728Z,7.80
2018-05-03T02:17:59.364Z,8.33
2018-05-03T02:20:25.977Z,8.07
2018-05-03T02:22:52.541Z,8.30
2018-05-03T02:25:19.222Z,8.47
2018-05-03T02:27:46.502Z,7.40
2018-05-03T02:30:13.118Z,7.83
2018-05-03T02:32:40.451Z,7.30
2018-05-03T02:35:07.054Z,8.70
2018-05-03T02:37:33.644Z,7.30
2018-05-03T02:40:00.998Z,7.40
2018-05-03T02:42:27.596Z,7.50
2018-05-03T02:44:54.169Z,7.60
2018-05-03T02:47:21.536Z,7.20
2018-05-03T02:49:48.106Z,7.50
2018-05-03T02:52:14.632Z,7.30
2018-05-03T02:54:41.237Z,7.57
2018-05-03T02:57:19.839Z,7.77
2018-05-03T02:59:58.413Z,7.10
2018-05-03T03:05:50.393Z,7.60
2018-05-03T03:08:46.936Z,7.57
2018-05-03T03:11:31.574Z,6.63
2018-05-03T03:14:27.040Z,7.10
2018-05-03T03:17:11.814Z,7.27
2018-05-03T03:23:12.240Z,7.53
2018-05-03T03:25:56.805Z,7.57
2018-05-03T03:28:41.473Z,6.87
2018-05-03T03:34:28.367Z,7.50
2018-05-03T03:37:12.948Z,7.57
2018-05-03T03:39:51.514Z,7.20
2018-05-03T03:45:35.254Z,6.83
2018-05-03T03:48:01.919Z,7.17
2018-05-03T03:50:28.537Z,7.40
2018-05-03T03:52:55.159Z,7.17
2018-05-03T03:55:22.480Z,6.70
2018-05-03T03:57:49.023Z,6.70
2018-05-03T04:00:15.590Z,7.80
2018-05-03T04:02:42.224Z,7.00
2018-05-03T04:05:08.868Z,7.23
2018-05-03T04:07:35.670Z,7.80
2018-05-03T04:10:02.373Z,7.30
2018-05-03T04:12:28.926Z,8.47
2018-05-03T04:15:06.017Z,7.27
2018-05-03T04:17:48.273Z,7.70
2018-05-03T04:20:39.893Z,7.40
2018-05-03T04:23:16.543Z,8.03
2018-05-03T04:25:57.360Z,8.03
2018-05-03T04:28:38.636Z,8.13
2018-05-03T04:31:08.502Z,9.73
2018-05-03T04:36:09.892Z,18.63
2018-05-03T04:38:40.039Z,19.07
2018-05-03T04:41:12.723Z,17.77
2018-05-03T04:43:40.860Z,20.27
2018-05-03T04:46:09.771Z,15.77
2018-05-03T04:48:42.044Z,15.60
2018-05-03T04:51:10.793Z,16.40
2018-05-03T04:53:39.611Z,13.97
2018-05-03T04:56:09.818Z,14.47
2018-05-03T04:58:38.892Z,13.50
2018-05-03T05:01:07.896Z,13.53
2018-05-03T05:03:53.315Z,13.50
2018-05-03T05:06:23.282Z,13.90
2018-05-03T05:08:53.304Z,14.77
2018-05-03T05:11:22.249Z,14.90
2018-05-03T05:14:05.389Z,14.17
2018-05-03T05:16:35.861Z,14.00
2018-05-03T05:19:05.904Z,13.50
2018-05-03T05:21:36.054Z,13.67
2018-05-03T05:24:04.260Z,10.60
2018-05-03T05:26:35.285Z,10.73
2018-05-03T05:29:08.727Z,9.93
2018-05-03T05:31:36.624Z,9.43
2018-05-03T05:34:05.732Z,8.93
2018-05-03T05:36:41.032Z,9.33
2018-05-03T05:39:11.094Z,8.27
2018-05-03T05:41:43.790Z,9.00
2018-05-03T05:44:24.613Z,9.37
2018-05-03T05:46:54.553Z,9.50
2018-05-03T05:49:25.667Z,8.97
2018-05-03T05:52:08.316Z,9.27
2018-05-03T05:54:38.762Z,7.40
2018-05-03T05:57:07.102Z,7.97
2018-05-03T06:01:11.590Z,8.50
2018-05-03T06:03:51.936Z,7.47
2018-05-03T06:06:21.980Z,7.70
2018-05-03T06:08:54.319Z,6.63
2018-05-03T06:11:24.532Z,7.30
2018-05-03T06:13:55.507Z,6.47
2018-05-03T06:16:24.490Z,7.20
2018-05-03T06:18:55.588Z,6.13
2018-05-03T06:21:48.891Z,5.50
2018-05-03T06:24:18.996Z,4.60
2018-05-03T06:26:49.929Z,4.97
2018-05-03T06:29:21.027Z,5.00
2018-05-03T06:31:50.711Z,5.07
2018-05-03T06:34:19.191Z,4.93
2018-05-03T06:36:50.409Z,4.17
2018-05-03T06:39:20.194Z,4.10
2018-05-03T06:41:50.293Z,5.33
2018-05-03T06:44:22.078Z,4.37
2018-05-03T06:46:50.912Z,3.97
2018-05-03T06:49:19.891Z,4.07
2018-05-03T06:51:48.171Z,4.67
2018-05-03T06:54:20.503Z,4.63
2018-05-03T06:56:49.191Z,4.90
2018-05-03T06:59:21.659Z,4.10
2018-05-03T07:01:51.357Z,4.97
2018-05-03T07:04:21.291Z,4.10
2018-05-03T07:06:53.474Z,4.17
2018-05-03T07:09:24.806Z,4.30
2018-05-03T07:12:05.323Z,4.23
2018-05-03T07:14:36.784Z,4.07
2018-05-03T07:17:05.464Z,4.87
2018-05-03T07:19:35.653Z,4.20
2018-05-03T07:22:09.257Z,4.77
2018-05-03T07:24:41.455Z,4.70
2018-05-03T07:27:12.826Z,4.63
2018-05-03T07:29:42.672Z,4.20
2018-05-03T07:32:10.549Z,5.00
2018-05-03T07:34:40.685Z,4.63
2018-05-03T07:37:10.352Z,4.63
2018-05-03T07:39:38.443Z,4.40
2018-05-03T07:42:06.319Z,4.53
2018-05-03T07:44:34.283Z,4.67
2018-05-03T07:47:03.618Z,4.87
2018-05-03T07:49:31.674Z,4.60
2018-05-03T07:52:01.617Z,4.97
2018-05-03T07:54:30.426Z,3.70
2018-05-03T07:56:58.915Z,4.53
2018-05-03T07:59:31.101Z,3.73
2018-05-03T08:01:58.460Z,4.20
2018-05-03T08:04:26.036Z,4.40
2018-05-03T08:06:54.293Z,4.57
2018-05-03T08:09:21.834Z,4.70
2018-05-03T08:11:48.528Z,4.00
2018-05-03T08:14:16.169Z,4.10
2018-05-03T08:16:44.671Z,4.60
2018-05-03T08:19:11.477Z,3.93
2018-05-03T08:21:39.772Z,4.43
2018-05-03T08:24:06.409Z,3.67
2018-05-03T08:26:34.017Z,3.37
2018-05-03T08:29:01.477Z,3.60
2018-05-03T08:31:28.092Z,3.83
2018-05-03T08:33:55.806Z,4.00
2018-05-03T08:36:23.270Z,3.70
2018-05-03T08:38:50.595Z,3.90
2018-05-03T08:41:18.234Z,3.10
2018-05-03T08:43:44.926Z,3.33
2018-05-03T08:46:11.652Z,3.60
2018-05-03T08:48:38.326Z,4.03
2018-05-03T08:51:04.996Z,3.47
2018-05-03T08:53:31.665Z,3.20
2018-05-03T08:55:58.395Z,3.42
2018-05-03T08:58:25.803Z,3.20
2018-05-03T09:00:52.496Z,3.17
2018-05-03T09:03:19.285Z,3.08
2018-05-03T09:05:46.906Z,3.10
2018-05-03T09:08:13.598Z,2.97
2018-05-03T09:10:40.294Z,3.12
2018-05-03T09:13:06.997Z,3.42
2018-05-03T09:15:33.691Z,3.40
2018-05-03T09:18:00.347Z,7.60
2018-05-03T09:20:26.985Z,4.15
2018-05-03T09:22:53.766Z,3.87
2018-05-03T09:25:20.398Z,3.22
2018-05-03T09:27:47.051Z,2.97
2018-05-03T09:30:13.767Z,3.30
2018-05-03T09:32:40.411Z,3.30
2018-05-03T09:35:07.146Z,3.08
2018-05-03T09:37:33.761Z,2.75
2018-05-03T09:40:00.428Z,3.37
2018-05-03T09:42:27.137Z,3.15
2018-05-03T09:44:54.122Z,3.17
2018-05-03T09:47:20.776Z,3.45
2018-05-03T09:49:47.433Z,3.10
2018-05-03T09:52:14.043Z,3.08
2018-05-03T09:54:40.652Z,3.35
2018-05-03T09:57:07.298Z,3.05
2018-05-03T09:59:33.988Z,2.90
2018-05-03T10:02:00.633Z,2.97
2018-05-03T10:04:27.333Z,2.90
2018-05-03T10:06:53.986Z,3.12
2018-05-03T10:09:20.582Z,3.40
2018-05-03T10:11:47.226Z,3.65
2018-05-03T10:14:13.915Z,3.15
2018-05-03T10:16:45.682Z,3.65
2018-05-03T10:19:12.976Z,3.72
2018-05-03T10:21:39.551Z,4.07
2018-05-03T10:24:06.186Z,3.28
2018-05-03T10:26:33.534Z,4.00
2018-05-03T10:29:00.137Z,3.33
2018-05-03T10:31:27.459Z,4.03
2018-05-03T10:33:54.153Z,3.65
2018-05-03T10:36:20.836Z,3.97
2018-05-03T10:38:47.337Z,3.17
2018-05-03T10:41:13.901Z,3.95
2018-05-03T10:43:40.523Z,3.12
2018-05-03T10:46:07.152Z,3.90
2018-05-03T10:48:33.728Z,3.55
2018-05-03T10:51:00.334Z,3.40
2018-05-03T10:53:26.912Z,3.53
2018-05-03T10:55:53.453Z,3.70
2018-05-03T10:58:19.991Z,3.90
2018-05-03T11:00:46.612Z,3.65
2018-05-03T11:03:13.206Z,3.12
2018-05-03T11:05:39.760Z,3.58
2018-05-03T11:08:07.158Z,3.53
2018-05-03T11:10:33.727Z,3.50
2018-05-03T11:13:00.301Z,3.60
2018-05-03T11:15:27.615Z,3.42
2018-05-03T11:17:54.193Z,3.45
2018-05-03T11:20:21.497Z,3.12
2018-05-03T11:22:48.095Z,3.17
2018-05-03T11:25:14.681Z,3.08
2018-05-03T11:27:41.251Z,3.30
2018-05-03T11:30:08.552Z,3.37
2018-05-03T11:32:35.061Z,3.20
2018-05-03T11:35:01.629Z,3.53
2018-05-03T11:37:28.202Z,3.87
2018-05-03T11:39:54.764Z,3.97
2018-05-03T11:42:22.067Z,3.50
2018-05-03T11:44:48.592Z,3.87
2018-05-03T11:47:15.963Z,4.13
2018-05-03T11:49:42.540Z,3.67
2018-05-03T11:52:09.869Z,3.60
2018-05-03T11:54:36.403Z,4.10
2018-05-03T11:57:02.981Z,4.07
2018-05-03T11:59:29.583Z,4.20
2018-05-03T12:01:56.173Z,3.63
2018-05-03T12:04:22.791Z,3.30
2018-05-03T12:06:49.408Z,3.30
2018-05-03T12:09:16.737Z,3.00
2018-05-03T12:11:43.331Z,3.20
2018-05-03T12:14:09.919Z,3.28
2018-05-03T12:16:36.491Z,3.10
2018-05-03T12:19:03.120Z,3.22
2018-05-03T12:21:29.766Z,3.40
2018-05-03T12:23:56.337Z,3.65
2018-05-03T12:26:22.918Z,3.80
2018-05-03T12:28:50.268Z,3.92
2018-05-03T12:31:16.881Z,3.53
2018-05-03T12:33:43.481Z,3.60
2018-05-03T12:36:10.044Z,3.92
2018-05-03T12:38:37.456Z,3.33
2018-05-03T12:41:04.803Z,3.78
2018-05-03T12:43:32.095Z,4.00
2018-05-03T12:45:58.697Z,3.65
2018-05-03T12:48:26.045Z,3.90
2018-05-03T12:50:52.742Z,3.97
2018-05-03T12:53:19.373Z,4.18
2018-05-03T12:55:45.955Z,3.97
2018-05-03T12:58:12.527Z,4.10
2018-05-03T13:00:39.151Z,3.60
2018-05-03T13:03:05.735Z,3.77
2018-05-03T13:05:32.291Z,3.80
2018-05-03T13:07:58.910Z,4.23
2018-05-03T13:10:25.521Z,4.43
2018-05-03T13:12:52.126Z,4.00
2018-05-03T13:15:18.722Z,4.10
2018-05-03T13:17:45.291Z,4.13
2018-05-03T13:20:11.849Z,4.77
2018-05-03T13:22:38.452Z,4.70
2018-05-03T13:25:05.041Z,4.30
2018-05-03T13:27:31.632Z,4.40
2018-05-03T13:29:58.167Z,5.20
2018-05-03T13:32:24.751Z,4.97
2018-05-03T13:34:51.312Z,4.47
2018-05-03T13:37:17.893Z,4.83
2018-05-03T13:39:46.003Z,4.60
2018-05-03T13:42:12.534Z,4.43
2018-05-03T13:44:39.078Z,4.77
2018-05-03T13:47:05.661Z,4.60
2018-05-03T13:49:32.190Z,4.60
2018-05-03T13:51:58.715Z,4.43
2018-05-03T13:54:25.286Z,4.20
2018-05-03T13:56:51.836Z,4.60
2018-05-03T13:59:18.480Z,4.60
2018-05-03T14:01:44.965Z,4.93
2018-05-03T14:04:11.890Z,4.87
2018-05-03T14:06:38.496Z,4.37
2018-05-03T14:09:05.218Z,4.57
2018-05-03T14:11:32.541Z,4.20
2018-05-03T14:13:59.158Z,4.33
2018-05-03T14:16:25.687Z,4.73
2018-05-03T14:18:52.207Z,4.77
2018-05-03T14:21:18.849Z,4.97
2018-05-03T14:23:45.477Z,4.00
2018-05-03T14:26:12.099Z,4.60
2018-05-03T14:28:39.481Z,4.90
2018-05-03T14:31:06.053Z,4.97
2018-05-03T14:33:32.576Z,5.03
2018-05-03T14:35:59.152Z,4.87
2018-05-03T14:38:25.692Z,5.17
2018-05-03T14:40:52.245Z,4.70
2018-05-03T14:43:19.505Z,5.10
2018-05-03T14:45:46.802Z,5.17
2018-05-03T14:48:13.363Z,4.90
2018-05-03T14:50:40.007Z,4.97
2018-05-03T14:53:06.727Z,4.90
2018-05-03T14:55:33.366Z,4.70
2018-05-03T14:57:59.996Z,5.40
2018-05-03T15:00:26.577Z,4.90
2018-05-03T15:02:53.951Z,4.87
2018-05-03T15:05:20.633Z,5.10
2018-05-03T15:07:47.361Z,5.47
2018-05-03T15:10:13.945Z,4.80
2018-05-03T15:12:41.420Z,5.20
2018-05-03T15:15:08.029Z,5.27
2018-05-03T15:17:34.634Z,5.30
2018-05-03T15:20:02.134Z,5.40
2018-05-03T15:22:29.599Z,5.00
2018-05-03T15:24:57.007Z,4.97
2018-05-03T15:27:23.610Z,5.00
2018-05-03T15:29:50.229Z,4.90
2018-05-03T15:32:17.536Z,4.97
2018-05-03T15:34:44.186Z,5.20
2018-05-03T15:37:11.431Z,4.97
2018-05-03T15:39:38.044Z,4.83
2018-05-03T15:42:04.669Z,5.70
2018-05-03T15:44:31.312Z,5.77
2018-05-03T15:46:57.904Z,5.37
2018-05-03T15:49:25.200Z,5.53
2018-05-03T15:51:52.357Z,5.83
2018-05-03T15:54:18.941Z,5.27
2018-05-03T15:56:45.516Z,4.90
2018-05-03T15:59:12.084Z,5.80
2018-05-03T16:01:38.703Z,5.20
2018-05-03T16:04:05.274Z,5.40
2018-05-03T16:06:31.859Z,5.17
2018-05-03T16:08:58.451Z,5.67
2018-05-03T16:11:25.083Z,5.57
2018-05-03T16:13:51.712Z,5.47
2018-05-03T16:16:18.290Z,4.97
2018-05-03T16:18:44.934Z,4.57
2018-05-03T16:21:11.544Z,5.70
2018-05-03T16:23:38.176Z,5.70
2018-05-03T16:26:04.768Z,5.83
2018-05-03T16:28:31.444Z,5.43
2018-05-03T16:30:58.044Z,5.30
2018-05-03T16:33:25.423Z,5.37
2018-05-03T16:35:52.032Z,5.30
2018-05-03T16:38:19.496Z,5.60
2018-05-03T16:40:46.162Z,5.60
2018-05-03T16:43:12.794Z,6.37
2018-05-03T16:45:39.446Z,6.03
2018-05-03T16:48:06.100Z,5.43
2018-05-03T16:50:32.703Z,5.87
2018-05-03T16:52:59.271Z,5.57
2018-05-03T16:55:25.818Z,5.87
2018-05-03T16:57:52.389Z,5.90
2018-05-03T17:00:19.792Z,5.43
2018-05-03T17:03:02.067Z,6.10
2018-05-03T17:05:28.697Z,5.43
2018-05-03T17:07:55.317Z,6.03
2018-05-03T17:10:23.553Z,6.30
2018-05-03T17:12:50.270Z,6.27
2018-05-03T17:15:16.881Z,5.57
2018-05-03T17:17:44.286Z,5.97
2018-05-03T17:20:12.677Z,6.70
2018-05-03T17:22:39.318Z,6.70
2018-05-03T17:25:06.007Z,6.50
2018-05-03T17:27:32.526Z,6.47
2018-05-03T17:29:59.242Z,5.90
2018-05-03T17:32:25.890Z,6.10
2018-05-03T17:34:52.535Z,5.73
2018-05-03T17:37:25.251Z,5.70
2018-05-03T17:39:52.996Z,5.60
2018-05-03T17:42:21.048Z,6.20
2018-05-03T17:44:47.832Z,5.33
2018-05-03T17:47:18.178Z,6.67
2018-05-03T17:49:45.640Z,6.83
2018-05-03T17:52:12.885Z,5.97
2018-05-03T17:54:39.514Z,5.83
2018-05-03T17:57:06.238Z,6.47
2018-05-03T17:59:35.011Z,6.17
2018-05-03T18:02:03.249Z,6.03
2018-05-03T18:04:30.497Z,6.47
2018-05-03T18:06:57.822Z,5.90
2018-05-03T18:09:24.537Z,7.03
2018-05-03T18:11:51.354Z,6.70
2018-05-03T18:14:18.089Z,6.77
2018-05-03T18:16:46.871Z,6.40
2018-05-03T18:19:13.564Z,6.93
2018-05-03T18:21:43.422Z,6.93
2018-05-03T18:24:10.141Z,7.53
2018-05-03T18:26:36.909Z,7.70
2018-05-03T18:29:04.673Z,7.23
2018-05-03T18:31:35.276Z,7.37
2018-05-03T18:34:05.042Z,7.63
2018-05-03T18:36:36.368Z,7.17
2018-05-03T18:39:04.227Z,6.57
2018-05-03T18:41:32.835Z,7.67
2018-05-03T18:44:02.182Z,6.70
2018-05-03T18:46:32.293Z,6.37
2018-05-03T18:49:02.609Z,7.60
2018-05-03T18:51:30.470Z,7.20
2018-05-03T18:54:01.152Z,7.47
2018-05-03T18:56:30.431Z,6.60
2018-05-03T18:58:58.204Z,7.53
2018-05-03T19:01:27.018Z,7.63
2018-05-03T19:03:58.662Z,6.97
2018-05-03T19:06:30.051Z,7.47
2018-05-03T19:08:58.338Z,6.90
2018-05-03T19:11:29.384Z,6.57
2018-05-03T19:13:56.959Z,7.40
2018-05-03T19:16:34.067Z,6.97
2018-05-03T19:19:09.500Z,6.80
2018-05-03T19:21:39.149Z,6.73
2018-05-03T19:24:06.941Z,7.33
2018-05-03T19:26:39.224Z,7.50
2018-05-03T19:29:07.854Z,7.03
2018-05-03T19:31:40.008Z,8.57
2018-05-03T19:34:09.250Z,8.77
2018-05-03T19:36:40.658Z,7.67
2018-05-03T19:39:08.504Z,7.23
2018-05-03T19:41:38.521Z,6.37
2018-05-03T19:44:11.664Z,7.00
2018-05-03T19:49:38.885Z,7.23
2018-05-03T19:52:09.918Z,7.30
2018-05-03T19:54:39.613Z,7.07
2018-05-03T19:57:09.452Z,6.47
2018-05-03T19:59:37.814Z,6.87
2018-05-03T20:02:06.316Z,6.33
2018-05-03T20:04:38.411Z,5.63
2018-05-03T20:07:07.168Z,6.27
2018-05-03T20:09:33.771Z,6.00
2018-05-03T20:12:00.432Z,7.03
2018-05-03T20:14:27.105Z,6.33
2018-05-03T20:16:53.765Z,6.33
2018-05-03T20:19:22.003Z,5.93
2018-05-03T20:21:48.642Z,6.50
2018-05-03T20:24:15.723Z,11.30
2018-05-03T20:26:42.416Z,16.33
2018-05-03T20:29:09.054Z,8.30
2018-05-03T20:31:35.678Z,7.57
2018-05-03T20:34:02.359Z,6.50
2018-05-03T20:36:28.941Z,6.20
2018-05-03T20:38:56.349Z,6.83
2018-05-03T20:41:22.969Z,6.37
2018-05-03T20:43:49.570Z,6.40
2018-05-03T20:46:16.252Z,6.43
2018-05-03T20:48:42.847Z,6.63
2018-05-03T20:51:09.625Z,6.57
2018-05-03T20:53:36.284Z,5.93
2018-05-03T20:56:03.140Z,6.57
2018-05-03T20:58:29.782Z,6.00
2018-05-03T21:00:56.447Z,6.00
2018-05-03T21:03:23.957Z,6.40
2018-05-03T21:05:50.544Z,6.57
2018-05-03T21:08:18.038Z,6.40
2018-05-03T21:10:44.617Z,6.97
2018-05-03T21:13:11.230Z,6.73
2018-05-03T21:15:38.089Z,6.47
2018-05-03T21:18:04.842Z,6.07
2018-05-03T21:20:31.774Z,5.83
2018-05-03T21:22:58.390Z,5.73
2018-05-03T21:25:25.017Z,6.00
2018-05-03T21:27:51.684Z,6.07
2018-05-03T21:30:18.347Z,6.30
2018-05-03T21:32:45.831Z,6.57
2018-05-03T21:35:12.904Z,6.40
2018-05-03T21:37:40.286Z,6.00
2018-05-03T21:40:06.902Z,6.37
2018-05-03T21:42:33.714Z,5.80
2018-05-03T21:45:00.301Z,6.17
2018-05-03T21:47:27.606Z,5.73
2018-05-03T21:49:54.192Z,6.57
2018-05-03T21:52:20.839Z,6.17
2018-05-03T21:54:47.615Z,6.67
2018-05-03T21:57:14.215Z,6.20
2018-05-03T21:59:40.857Z,6.03
2018-05-03T22:02:07.451Z,6.07
2018-05-03T22:04:34.911Z,6.13
2018-05-03T22:07:01.514Z,5.73
2018-05-03T22:09:29.110Z,5.50
2018-05-03T22:11:55.673Z,5.83
2018-05-03T22:14:22.221Z,5.90
2018-05-03T22:16:49.098Z,6.37
2018-05-03T22:19:15.760Z,5.90
2018-05-03T22:21:42.350Z,5.90
2018-05-03T22:24:08.971Z,6.23
2018-05-03T22:26:35.593Z,5.90
2018-05-03T22:29:02.153Z,5.13
2018-05-03T22:31:28.733Z,5.80
2018-05-03T22:33:55.321Z,4.83
2018-05-03T22:36:21.910Z,5.60
2018-05-03T22:38:49.314Z,5.77
2018-05-03T22:41:15.901Z,5.67
2018-05-03T22:43:42.505Z,5.93
2018-05-03T22:46:09.104Z,6.00
2018-05-03T22:48:35.744Z,6.10
2018-05-03T22:51:03.069Z,5.87
2018-05-03T22:53:30.406Z,5.97
2018-05-03T22:55:57.663Z,6.10
2018-05-03T22:58:25.004Z,5.50
2018-05-03T23:00:51.632Z,6.13
2018-05-03T23:03:18.228Z,5.57
2018-05-03T23:05:44.879Z,6.47
2018-05-03T23:08:11.542Z,5.73
2018-05-03T23:10:38.152Z,5.57
2018-05-03T23:13:04.708Z,5.57
2018-05-03T23:15:31.324Z,5.93
2018-05-03T23:17:57.936Z,5.87
2018-05-03T23:20:24.573Z,6.33
2018-05-03T23:22:51.947Z,6.27
2018-05-03T23:25:18.557Z,5.93
2018-05-03T23:27:45.121Z,6.87
2018-05-03T23:30:11.768Z,6.53
2018-05-03T23:32:39.191Z,5.80
2018-05-03T23:35:06.569Z,6.57
2018-05-03T23:37:33.188Z,6.40
2018-05-03T23:39:59.768Z,5.77
2018-05-03T23:42:26.376Z,6.07
2018-05-03T23:44:53.008Z,6.03
2018-05-03T23:47:19.585Z,6.27
2018-05-03T23:49:46.203Z,6.20
2018-05-03T23:52:12.819Z,6.53
2018-05-03T23:54:40.201Z,6.37
2018-05-03T23:57:06.861Z,6.13
2018-05-03T23:59:33.503Z,6.70
